createdAt,value
2019-04-05T00:00:59.509Z,94203
2019-04-05T00:02:09.007Z,94202
2019-04-05T00:03:18.526Z,94201
2019-04-05T00:04:28.038Z,94205
2019-04-05T00:05:37.537Z,94202
2019-04-05T00:06:47.037Z,94206
2019-04-05T00:07:56.540Z,94209
2019-04-05T00:09:06.069Z,94205
2019-04-05T00:10:22.624Z,94201
2019-04-05T00:11:32.157Z,94208
2019-04-05T00:12:41.699Z,94203
2019-04-05T00:13:51.241Z,94205
2019-04-05T00:15:14.151Z,94207
2019-04-05T00:16:11.282Z,94202
2019-04-05T00:17:20.819Z,94207
2019-04-05T00:18:30.346Z,94208
2019-04-05T00:19:39.880Z,94214
2019-04-05T00:20:49.412Z,94215
2019-04-05T00:21:58.943Z,94218
2019-04-05T00:23:08.495Z,94217
2019-04-05T00:24:18.012Z,94221
2019-04-05T00:25:27.522Z,94221
2019-04-05T00:26:37.058Z,94231
2019-04-05T00:27:46.587Z,94224
2019-04-05T00:28:56.131Z,94223
2019-04-05T00:30:05.728Z,94226
2019-04-05T00:31:15.246Z,94225
2019-04-05T00:32:24.767Z,94229
2019-04-05T00:33:34.298Z,94236
2019-04-05T00:34:43.833Z,94229
2019-04-05T00:35:53.372Z,94231
2019-04-05T00:37:02.902Z,94227
2019-04-05T00:38:12.430Z,94231
2019-04-05T00:39:21.961Z,94232
2019-04-05T00:40:31.483Z,94232
2019-04-05T00:41:41.022Z,94233
2019-04-05T00:42:50.559Z,94234
2019-04-05T00:44:00.087Z,94238
2019-04-05T00:45:09.617Z,94242
2019-04-05T00:46:20.162Z,94243
2019-04-05T00:47:29.681Z,94238
2019-04-05T00:48:39.210Z,94241
2019-04-05T00:49:48.745Z,94245
2019-04-05T00:50:58.268Z,94238
2019-04-05T00:52:07.776Z,94240
2019-04-05T00:53:17.287Z,94238
2019-04-05T00:54:26.856Z,94236
2019-04-05T00:55:36.368Z,94235
2019-04-05T00:56:45.888Z,94234
2019-04-05T00:57:55.415Z,94234
2019-04-05T00:59:04.937Z,94223
2019-04-05T01:00:14.474Z,94227
2019-04-05T01:01:24.015Z,94219
2019-04-05T01:02:33.565Z,94217
2019-04-05T01:03:43.141Z,94215
2019-04-05T01:04:52.673Z,94222
2019-04-05T01:06:02.226Z,94223
2019-04-05T01:07:11.771Z,94223
2019-04-05T01:08:21.312Z,94219
2019-04-05T01:09:30.848Z,94221
2019-04-05T01:10:40.398Z,94229
2019-04-05T01:11:49.921Z,94230
2019-04-05T01:12:59.475Z,94232
2019-04-05T01:14:09.035Z,94221
2019-04-05T01:15:18.570Z,94219
2019-04-05T01:16:28.106Z,94214
2019-04-05T01:17:37.629Z,94217
2019-04-05T01:18:47.165Z,94218
2019-04-05T01:19:56.702Z,94225
2019-04-05T01:21:06.246Z,94224
2019-04-05T01:22:15.784Z,94223
2019-04-05T01:23:25.332Z,94229
2019-04-05T01:24:34.874Z,94232
2019-04-05T01:25:44.416Z,94232
2019-04-05T01:26:53.931Z,94233
2019-04-05T01:28:03.440Z,94233
2019-04-05T01:29:12.974Z,94235
2019-04-05T01:30:22.495Z,94231
2019-04-05T01:31:32.016Z,94226
2019-04-05T01:32:41.572Z,94228
2019-04-05T01:33:51.096Z,94234
2019-04-05T01:35:01.745Z,94233
2019-04-05T01:36:11.166Z,94233
2019-04-05T01:37:20.719Z,94232
2019-04-05T01:38:30.255Z,94235
2019-04-05T01:39:39.779Z,94231
2019-04-05T01:40:49.362Z,94231
2019-04-05T01:41:58.864Z,94227
2019-04-05T01:43:08.392Z,94231
2019-04-05T01:44:17.931Z,94227
2019-04-05T01:45:27.484Z,94232
2019-04-05T01:46:37.014Z,94231
2019-04-05T01:47:46.547Z,94243
2019-04-05T01:48:56.090Z,94242
2019-04-05T01:50:05.624Z,94242
2019-04-05T01:51:15.138Z,94238
2019-04-05T01:52:24.668Z,94235
2019-04-05T01:53:34.192Z,94235
2019-04-05T01:54:43.743Z,94229
2019-04-05T01:55:53.273Z,94230
2019-04-05T01:57:02.817Z,94238
2019-04-05T01:58:12.354Z,94238
2019-04-05T01:59:21.864Z,94237
2019-04-05T02:00:31.413Z,94242
2019-04-05T02:01:40.935Z,94241
2019-04-05T02:02:50.473Z,94243
2019-04-05T02:03:59.994Z,94242
2019-04-05T02:05:09.545Z,94241
2019-04-05T02:06:19.093Z,94238
2019-04-05T02:07:28.627Z,94235
2019-04-05T02:08:38.167Z,94244
2019-04-05T02:09:47.682Z,94242
2019-04-05T02:10:57.214Z,94246
2019-04-05T02:12:06.765Z,94243
2019-04-05T02:13:16.292Z,94250
2019-04-05T02:14:25.832Z,94251
2019-04-05T02:15:35.392Z,94251
2019-04-05T02:16:44.917Z,94250
2019-04-05T02:17:54.453Z,94242
2019-04-05T02:19:03.955Z,94242
2019-04-05T02:20:13.482Z,94242
2019-04-05T02:21:23.047Z,94243
2019-04-05T02:22:32.600Z,94244
2019-04-05T02:23:42.157Z,94244
2019-04-05T02:24:51.670Z,94246
2019-04-05T02:26:01.237Z,94244
2019-04-05T02:27:10.810Z,94243
2019-04-05T02:28:20.323Z,94244
2019-04-05T02:29:29.826Z,94239
2019-04-05T02:30:39.381Z,94242
2019-04-05T02:31:48.906Z,94248
2019-04-05T02:32:58.478Z,94246
2019-04-05T02:34:07.969Z,94241
2019-04-05T02:35:17.480Z,94247
2019-04-05T02:36:27.079Z,94240
2019-04-05T02:37:36.618Z,94247
2019-04-05T02:38:46.151Z,94248
2019-04-05T02:39:55.672Z,94250
2019-04-05T02:41:05.219Z,94254
2019-04-05T02:42:14.751Z,94256
2019-04-05T02:43:24.277Z,94250
2019-04-05T02:44:33.802Z,94256
2019-04-05T02:45:43.355Z,94251
2019-04-05T02:46:52.906Z,94253
2019-04-05T02:48:02.431Z,94256
2019-04-05T02:49:11.962Z,94254
2019-04-05T02:50:21.468Z,94252
2019-04-05T02:51:30.997Z,94254
2019-04-05T02:52:40.553Z,94255
2019-04-05T02:53:50.114Z,94256
2019-04-05T02:54:59.673Z,94256
2019-04-05T02:56:09.204Z,94255
2019-04-05T02:57:18.744Z,94253
2019-04-05T02:58:28.275Z,94250
2019-04-05T02:59:37.802Z,94249
2019-04-05T03:00:47.369Z,94252
2019-04-05T03:01:56.863Z,94259
2019-04-05T03:03:06.424Z,94257
2019-04-05T03:04:15.960Z,94250
2019-04-05T03:05:25.498Z,94248
2019-04-05T03:06:35.051Z,94236
2019-04-05T03:07:44.625Z,94246
2019-04-05T03:08:54.155Z,94242
2019-04-05T03:10:03.689Z,94246
2019-04-05T03:11:13.282Z,94242
2019-04-05T03:12:22.800Z,94238
2019-04-05T03:13:32.361Z,94241
2019-04-05T03:14:41.883Z,94246
2019-04-05T03:15:51.463Z,94249
2019-04-05T03:17:00.995Z,94250
2019-04-05T03:18:10.518Z,94247
2019-04-05T03:19:20.077Z,94249
2019-04-05T03:20:29.595Z,94247
2019-04-05T03:21:39.154Z,94247
2019-04-05T03:22:48.682Z,94249
2019-04-05T03:23:58.214Z,94253
2019-04-05T03:25:07.739Z,94247
2019-04-05T03:26:17.280Z,94251
2019-04-05T03:27:26.816Z,94248
2019-04-05T03:28:36.357Z,94247
2019-04-05T03:29:45.918Z,94252
2019-04-05T03:30:55.437Z,94249
2019-04-05T03:32:04.994Z,94247
2019-04-05T03:33:14.521Z,94249
2019-04-05T03:34:24.045Z,94253
2019-04-05T03:35:33.571Z,94251
2019-04-05T03:36:43.105Z,94254
2019-04-05T03:37:53.602Z,94253
2019-04-05T03:39:03.130Z,94256
2019-04-05T03:40:12.672Z,94255
2019-04-05T03:41:22.206Z,94261
2019-04-05T03:42:31.753Z,94257
2019-04-05T03:43:41.260Z,94258
2019-04-05T03:44:50.803Z,94262
2019-04-05T03:46:00.327Z,94262
2019-04-05T03:47:09.880Z,94264
2019-04-05T03:48:19.392Z,94264
2019-04-05T03:49:28.955Z,94266
2019-04-05T03:50:38.483Z,94267
2019-04-05T03:51:47.984Z,94260
2019-04-05T03:52:57.501Z,94255
2019-04-05T03:54:07.033Z,94253
2019-04-05T03:55:16.569Z,94253
2019-04-05T03:56:26.099Z,94256
2019-04-05T03:57:35.657Z,94251
2019-04-05T03:58:45.175Z,94254
2019-04-05T03:59:54.710Z,94252
2019-04-05T04:01:04.213Z,94246
2019-04-05T04:02:13.746Z,94250
2019-04-05T04:03:24.294Z,94252
2019-04-05T04:04:33.833Z,94257
2019-04-05T04:05:43.361Z,94256
2019-04-05T04:06:52.942Z,94255
2019-04-05T04:08:02.466Z,94261
2019-04-05T04:09:11.997Z,94260
2019-04-05T04:10:21.557Z,94255
2019-04-05T04:11:31.115Z,94251
2019-04-05T04:12:40.670Z,94250
2019-04-05T04:13:50.179Z,94246
2019-04-05T04:14:59.708Z,94244
2019-04-05T04:16:09.220Z,94248
2019-04-05T04:17:19.748Z,94247
2019-04-05T04:18:29.302Z,94250
2019-04-05T04:19:38.839Z,94253
2019-04-05T04:20:48.367Z,94255
2019-04-05T04:21:57.903Z,94252
2019-04-05T04:23:07.421Z,94251
2019-04-05T04:24:16.957Z,94251
2019-04-05T04:25:27.474Z,94255
2019-04-05T04:26:36.995Z,94248
2019-04-05T04:27:46.523Z,94254
2019-04-05T04:28:56.067Z,94250
2019-04-05T04:30:05.633Z,94241
2019-04-05T04:31:15.151Z,94252
2019-04-05T04:32:24.698Z,94250
2019-04-05T04:33:34.229Z,94262
2019-04-05T04:34:43.745Z,94262
2019-04-05T04:35:53.275Z,94263
2019-04-05T04:37:02.818Z,94262
2019-04-05T04:38:12.334Z,94256
2019-04-05T04:39:21.868Z,94263
2019-04-05T04:40:31.426Z,94271
2019-04-05T04:41:40.945Z,94271
2019-04-05T04:42:50.483Z,94272
2019-04-05T04:43:59.999Z,94269
2019-04-05T04:45:12.241Z,94274
2019-04-05T04:46:19.066Z,94272
2019-04-05T04:47:28.592Z,94276
2019-04-05T04:48:38.123Z,94270
2019-04-05T04:49:47.741Z,94273
2019-04-05T04:50:57.267Z,94270
2019-04-05T04:52:06.809Z,94265
2019-04-05T04:53:16.344Z,94271
2019-04-05T04:54:25.874Z,94271
2019-04-05T04:55:35.381Z,94272
2019-04-05T04:56:44.919Z,94269
2019-04-05T04:57:54.466Z,94275
2019-04-05T04:59:04.032Z,94277
2019-04-05T05:00:13.560Z,94273
2019-04-05T05:01:23.115Z,94270
2019-04-05T05:02:32.689Z,94273
2019-04-05T05:03:42.209Z,94271
2019-04-05T05:04:51.746Z,94275
2019-04-05T05:06:01.280Z,94272
2019-04-05T05:07:10.804Z,94280
2019-04-05T05:08:20.344Z,94282
2019-04-05T05:09:29.882Z,94277
2019-04-05T05:10:39.407Z,94274
2019-04-05T05:11:48.965Z,94272
2019-04-05T05:12:58.521Z,94268
2019-04-05T05:14:08.033Z,94271
2019-04-05T05:15:17.559Z,94266
2019-04-05T05:16:27.079Z,94272
2019-04-05T05:17:38.547Z,94271
2019-04-05T05:18:46.114Z,94279
2019-04-05T05:19:55.632Z,94283
2019-04-05T05:21:05.161Z,94290
2019-04-05T05:22:14.680Z,94283
2019-04-05T05:23:24.237Z,94278
2019-04-05T05:24:33.761Z,94279
2019-04-05T05:25:43.291Z,94283
2019-04-05T05:26:52.801Z,94283
2019-04-05T05:28:02.343Z,94287
2019-04-05T05:29:11.918Z,94290
2019-04-05T05:30:21.441Z,94284
2019-04-05T05:31:30.955Z,94285
2019-04-05T05:32:40.500Z,94284
2019-04-05T05:33:50.030Z,94283
2019-04-05T05:35:02.111Z,94288
2019-04-05T05:36:10.531Z,94290
2019-04-05T05:37:18.571Z,94294
2019-04-05T05:38:28.134Z,94295
2019-04-05T05:39:37.680Z,94288
2019-04-05T05:40:47.294Z,94288
2019-04-05T05:41:56.816Z,94289
2019-04-05T05:43:06.378Z,94293
2019-04-05T05:44:15.916Z,94292
2019-04-05T05:45:25.440Z,94289
2019-04-05T05:46:34.976Z,94292
2019-04-05T05:47:51.457Z,94293
2019-04-05T05:48:55.111Z,94291
2019-04-05T05:50:04.675Z,94295
2019-04-05T05:51:14.183Z,94289
2019-04-05T05:52:23.721Z,94286
2019-04-05T05:53:33.326Z,94289
2019-04-05T05:54:42.798Z,94287
2019-04-05T05:55:52.329Z,94285
2019-04-05T05:57:01.836Z,94288
2019-04-05T05:58:11.392Z,94286
2019-04-05T05:59:20.933Z,94291
2019-04-05T06:00:31.441Z,94290
2019-04-05T06:01:40.977Z,94285
2019-04-05T06:02:50.497Z,94281
2019-04-05T06:04:00.069Z,94283
2019-04-05T06:05:09.589Z,94281
2019-04-05T06:06:19.119Z,94287
2019-04-05T06:07:28.652Z,94285
2019-04-05T06:08:38.194Z,94290
2019-04-05T06:09:47.895Z,94285
2019-04-05T06:10:57.284Z,94286
2019-04-05T06:13:43.196Z,94282
2019-04-05T06:14:52.726Z,94280
2019-04-05T06:16:02.242Z,94281
2019-04-05T06:17:11.748Z,94282
2019-04-05T06:18:21.271Z,94278
2019-04-05T06:19:30.775Z,94278
2019-04-05T06:20:40.281Z,94274
2019-04-05T06:21:49.786Z,94270
2019-04-05T06:22:59.315Z,94270
2019-04-05T06:24:08.820Z,94268
2019-04-05T06:25:18.376Z,94277
2019-04-05T06:26:27.870Z,94269
2019-04-05T06:27:37.390Z,94269
2019-04-05T06:28:46.978Z,94275
2019-04-05T06:29:56.397Z,94277
2019-04-05T06:31:05.911Z,94273
2019-04-05T06:32:15.406Z,94275
2019-04-05T06:33:31.176Z,94276
2019-04-05T06:34:35.413Z,94274
2019-04-05T06:35:44.924Z,94275
2019-04-05T06:36:54.422Z,94273
2019-04-05T06:38:03.980Z,94275
2019-04-05T06:39:13.442Z,94278
2019-04-05T06:40:23.934Z,94276
2019-04-05T06:41:34.414Z,94274
2019-04-05T06:42:43.942Z,94275
2019-04-05T06:43:53.448Z,94276
2019-04-05T06:45:02.959Z,94274
2019-04-05T06:46:12.468Z,94271
2019-04-05T06:47:21.975Z,94272
2019-04-05T06:48:31.511Z,94276
2019-04-05T06:49:41.006Z,94278
2019-04-05T06:50:50.513Z,94277
2019-04-05T06:52:00.027Z,94276
2019-04-05T06:53:09.548Z,94279
2019-04-05T06:54:19.067Z,94280
2019-04-05T06:55:28.571Z,94280
2019-04-05T06:56:38.080Z,94281
2019-04-05T06:57:47.602Z,94272
2019-04-05T06:58:57.111Z,94274
2019-04-05T07:00:06.613Z,94275
2019-04-05T07:01:16.114Z,94275
2019-04-05T07:02:25.623Z,94277
2019-04-05T07:03:35.145Z,94278
2019-04-05T07:04:44.657Z,94281
2019-04-05T07:05:54.161Z,94282
2019-04-05T07:07:03.669Z,94285
2019-04-05T07:08:13.189Z,94284
2019-04-05T07:09:22.691Z,94289
2019-04-05T07:10:32.201Z,94284
2019-04-05T07:11:41.706Z,94284
2019-04-05T07:12:51.231Z,94281
2019-04-05T07:14:00.752Z,94284
2019-04-05T07:15:10.254Z,94286
2019-04-05T07:16:19.763Z,94284
2019-04-05T07:17:29.277Z,94280
2019-04-05T07:18:38.799Z,94283
2019-04-05T07:19:48.300Z,94283
2019-04-05T07:20:58.107Z,94280
2019-04-05T07:22:07.329Z,94281
2019-04-05T07:23:16.873Z,94284
2019-04-05T07:24:26.378Z,94286
2019-04-05T07:25:35.893Z,94283
2019-04-05T07:26:45.395Z,94282
2019-04-05T07:27:54.913Z,94289
2019-04-05T07:29:04.427Z,94285
2019-04-05T07:30:13.944Z,94290
2019-04-05T07:31:23.464Z,94291
2019-04-05T07:32:33.006Z,94290
2019-04-05T07:33:42.493Z,94285
2019-04-05T07:34:52.031Z,94299
2019-04-05T07:36:03.419Z,94301
2019-04-05T07:37:10.995Z,94300
2019-04-05T07:38:20.515Z,94306
2019-04-05T07:39:30.049Z,94304
2019-04-05T07:40:39.530Z,94305
2019-04-05T07:41:49.049Z,94306
2019-04-05T07:42:58.552Z,94302
2019-04-05T07:44:08.074Z,94300
2019-04-05T07:45:17.584Z,94297
2019-04-05T07:46:27.090Z,94300
2019-04-05T07:47:36.583Z,94298
2019-04-05T07:48:46.157Z,94304
2019-04-05T07:49:55.616Z,94300
2019-04-05T07:51:05.124Z,94304
2019-04-05T07:52:14.633Z,94303
2019-04-05T07:53:24.154Z,94304
2019-04-05T07:54:33.660Z,94306
2019-04-05T07:55:43.167Z,94306
2019-04-05T07:56:52.682Z,94307
2019-04-05T07:58:02.179Z,94308
2019-04-05T07:59:11.695Z,94306
2019-04-05T08:00:22.199Z,94307
2019-04-05T08:01:31.708Z,94297
2019-04-05T08:02:41.214Z,94294
2019-04-05T08:03:50.728Z,94297
2019-04-05T08:05:01.215Z,94293
2019-04-05T08:06:10.714Z,94294
2019-04-05T08:07:20.225Z,94299
2019-04-05T08:08:29.745Z,94300
2019-04-05T08:09:39.253Z,94302
2019-04-05T08:10:49.807Z,94299
2019-04-05T08:11:59.314Z,94304
2019-04-05T08:13:08.820Z,94302
2019-04-05T08:14:18.411Z,94302
2019-04-05T08:15:27.851Z,94302
2019-04-05T08:16:37.383Z,94303
2019-04-05T08:17:46.884Z,94297
2019-04-05T08:18:57.860Z,94301
2019-04-05T08:20:05.896Z,94297
2019-04-05T08:21:15.429Z,94301
2019-04-05T08:22:25.927Z,94303
2019-04-05T08:23:35.422Z,94306
2019-04-05T08:24:44.947Z,94307
2019-04-05T08:25:54.453Z,94305
2019-04-05T08:27:03.964Z,94309
2019-04-05T08:28:13.473Z,94310
2019-04-05T08:29:22.989Z,94309
2019-04-05T08:30:32.488Z,94307
2019-04-05T08:31:41.995Z,94307
2019-04-05T08:32:51.533Z,94304
2019-04-05T08:34:01.101Z,94310
2019-04-05T08:35:10.817Z,94313
2019-04-05T08:36:20.390Z,94312
2019-04-05T08:37:29.895Z,94306
2019-04-05T08:38:39.950Z,94306
2019-04-05T08:39:48.915Z,94310
2019-04-05T08:40:58.414Z,94312
2019-04-05T08:42:10.638Z,94314
2019-04-05T08:43:17.391Z,94314
2019-04-05T08:44:26.913Z,94315
2019-04-05T08:45:36.411Z,94313
2019-04-05T08:46:45.912Z,94311
2019-04-05T08:47:55.417Z,94307
2019-04-05T08:49:10.786Z,94311
2019-04-05T08:50:14.418Z,94302
2019-04-05T08:51:23.934Z,94303
2019-04-05T08:52:33.441Z,94301
2019-04-05T08:53:42.944Z,94297
2019-04-05T08:54:52.499Z,94300
2019-04-05T08:56:01.971Z,94299
2019-04-05T08:57:11.471Z,94300
2019-04-05T08:58:32.759Z,94296
2019-04-05T08:59:31.463Z,94301
2019-04-05T09:00:40.965Z,94299
2019-04-05T09:01:50.476Z,94300
2019-04-05T09:02:59.985Z,94294
2019-04-05T09:04:09.513Z,94297
2019-04-05T09:05:19.021Z,94295
2019-04-05T09:06:28.541Z,94297
2019-04-05T09:07:38.044Z,94299
2019-04-05T09:08:47.550Z,94294
2019-04-05T09:09:57.068Z,94292
2019-04-05T09:11:06.558Z,94284
2019-04-05T09:12:16.078Z,94285
2019-04-05T09:13:25.579Z,94290
2019-04-05T09:14:35.115Z,94296
2019-04-05T09:15:44.630Z,94299
2019-04-05T09:16:54.138Z,94296
2019-04-05T09:18:03.669Z,94296
2019-04-05T09:19:22.944Z,94290
2019-04-05T09:20:23.674Z,94291
2019-04-05T09:21:33.166Z,94293
2019-04-05T09:22:43.653Z,94293
2019-04-05T09:23:53.160Z,94294
2019-04-05T09:25:02.678Z,94295
2019-04-05T09:26:12.188Z,94297
2019-04-05T09:27:21.696Z,94296
2019-04-05T09:28:31.208Z,94299
2019-04-05T09:29:40.751Z,94299
2019-04-05T09:30:51.734Z,94295
2019-04-05T09:31:59.751Z,94297
2019-04-05T09:33:09.253Z,94292
2019-04-05T09:34:18.775Z,94297
2019-04-05T09:35:28.288Z,94298
2019-04-05T09:36:37.796Z,94297
2019-04-05T09:37:47.302Z,94303
2019-04-05T09:38:56.811Z,94301
2019-04-05T09:40:06.338Z,94302
2019-04-05T09:41:15.844Z,94303
2019-04-05T09:42:25.348Z,94299
2019-04-05T09:43:34.864Z,94301
2019-04-05T09:44:44.390Z,94303
2019-04-05T09:45:53.892Z,94300
2019-04-05T09:47:03.406Z,94302
2019-04-05T09:48:12.914Z,94300
2019-04-05T09:49:22.467Z,94308
2019-04-05T09:50:32.973Z,94308
2019-04-05T09:51:42.477Z,94307
2019-04-05T09:52:51.993Z,94309
2019-04-05T09:54:01.488Z,94309
2019-04-05T09:55:11.010Z,94306
2019-04-05T09:56:20.507Z,94309
2019-04-05T09:57:30.022Z,94306
2019-04-05T09:58:39.530Z,94307
2019-04-05T09:59:49.060Z,94304
2019-04-05T10:00:58.580Z,94298
2019-04-05T10:02:08.085Z,94300
2019-04-05T10:03:17.593Z,94304
2019-04-05T10:04:27.098Z,94304
2019-04-05T10:05:36.609Z,94308
2019-04-05T10:06:46.119Z,94307
2019-04-05T10:07:55.882Z,94306
2019-04-05T10:09:05.120Z,94305
2019-04-05T10:10:14.665Z,94307
2019-04-05T10:11:24.176Z,94299
2019-04-05T10:12:33.677Z,94302
2019-04-05T10:13:43.187Z,94299
2019-04-05T10:14:52.720Z,94303
2019-04-05T10:16:02.228Z,94297
2019-04-05T10:17:11.734Z,94295
2019-04-05T10:18:21.236Z,94290
2019-04-05T10:19:30.736Z,94292
2019-04-05T10:20:41.251Z,94294
2019-04-05T10:21:50.759Z,94286
2019-04-05T10:23:00.267Z,94288
2019-04-05T10:24:09.780Z,94293
2019-04-05T10:25:19.304Z,94288
2019-04-05T10:26:28.812Z,94293
2019-04-05T10:27:38.319Z,94290
2019-04-05T10:28:47.823Z,94289
2019-04-05T10:29:57.344Z,94287
2019-04-05T10:31:06.851Z,94289
2019-04-05T10:32:16.351Z,94283
2019-04-05T10:33:25.855Z,94285
2019-04-05T10:34:35.358Z,94279
2019-04-05T10:35:44.895Z,94277
2019-04-05T10:36:54.399Z,94276
2019-04-05T10:38:03.905Z,94285
2019-04-05T10:39:13.414Z,94283
2019-04-05T10:40:22.929Z,94284
2019-04-05T10:41:32.431Z,94283
2019-04-05T10:42:41.938Z,94281
2019-04-05T10:43:51.446Z,94280
2019-04-05T10:45:00.965Z,94277
2019-04-05T10:46:10.467Z,94280
2019-04-05T10:47:19.975Z,94279
2019-04-05T10:48:29.479Z,94278
2019-04-05T10:49:38.981Z,94279
2019-04-05T10:50:48.510Z,94277
2019-04-05T10:51:58.012Z,94279
2019-04-05T10:53:07.518Z,94276
2019-04-05T10:54:17.021Z,94275
2019-04-05T10:55:26.555Z,94267
2019-04-05T10:56:36.058Z,94266
2019-04-05T10:57:45.570Z,94273
2019-04-05T10:58:55.077Z,94272
2019-04-05T11:00:04.584Z,94274
2019-04-05T11:01:14.127Z,94274
2019-04-05T11:02:23.633Z,94272
2019-04-05T11:03:33.135Z,94276
2019-04-05T11:04:42.643Z,94275
2019-04-05T11:05:52.157Z,94274
2019-04-05T11:07:01.664Z,94268
2019-04-05T11:08:11.158Z,94268
2019-04-05T11:09:20.670Z,94268
2019-04-05T11:10:30.200Z,94265
2019-04-05T11:11:39.713Z,94266
2019-04-05T11:12:49.993Z,94266
2019-04-05T11:13:58.702Z,94266
2019-04-05T11:15:09.187Z,94265
2019-04-05T11:16:18.697Z,94270
2019-04-05T11:17:28.202Z,94267
2019-04-05T11:18:37.717Z,94270
2019-04-05T11:19:48.196Z,94273
2019-04-05T11:20:57.723Z,94266
2019-04-05T11:22:07.218Z,94269
2019-04-05T11:23:16.739Z,94262
2019-04-05T11:24:26.233Z,94261
2019-04-05T11:25:35.733Z,94263
2019-04-05T11:26:45.258Z,94263
2019-04-05T11:27:54.760Z,94263
2019-04-05T11:29:04.268Z,94257
2019-04-05T11:30:13.773Z,94264
2019-04-05T11:31:23.288Z,94266
2019-04-05T11:32:32.789Z,94265
2019-04-05T11:33:42.294Z,94267
2019-04-05T11:34:51.798Z,94265
2019-04-05T11:36:01.319Z,94269
2019-04-05T11:37:10.818Z,94265
2019-04-05T11:38:24.059Z,94266
2019-04-05T11:39:30.802Z,94263
2019-04-05T11:40:40.319Z,94267
2019-04-05T11:41:49.823Z,94262
2019-04-05T11:42:59.324Z,94265
2019-04-05T11:44:08.828Z,94263
2019-04-05T11:45:18.351Z,94261
2019-04-05T11:46:27.887Z,94259
2019-04-05T11:47:37.403Z,94258
2019-04-05T11:48:46.907Z,94261
2019-04-05T11:49:56.406Z,94258
2019-04-05T11:51:05.923Z,94261
2019-04-05T11:52:15.433Z,94258
2019-04-05T11:53:24.988Z,94259
2019-04-05T11:54:34.507Z,94255
2019-04-05T11:55:46.368Z,94255
2019-04-05T11:56:53.520Z,94258
2019-04-05T11:58:03.097Z,94259
2019-04-05T11:59:13.340Z,94257
2019-04-05T12:00:22.048Z,94257
2019-04-05T12:01:31.568Z,94257
2019-04-05T12:02:41.068Z,94257
2019-04-05T12:03:50.579Z,94256
2019-04-05T12:05:00.086Z,94254
2019-04-05T12:06:09.603Z,94250
2019-04-05T12:07:21.655Z,94252
2019-04-05T12:08:29.637Z,94246
2019-04-05T12:09:39.137Z,94247
2019-04-05T12:10:49.643Z,94245
2019-04-05T12:11:59.158Z,94248
2019-04-05T12:13:16.031Z,94246
2019-04-05T12:14:30.295Z,94246
2019-04-05T12:15:35.676Z,94247
2019-04-05T12:16:44.609Z,94242
2019-04-05T12:17:54.130Z,94242
2019-04-05T12:19:04.663Z,94239
2019-04-05T12:20:13.173Z,94235
2019-04-05T12:21:22.781Z,94237
2019-04-05T12:22:32.598Z,94237
2019-04-05T12:23:41.871Z,94229
2019-04-05T12:24:51.439Z,94231
2019-04-05T12:26:03.640Z,94230
2019-04-05T12:27:10.588Z,94230
2019-04-05T12:28:20.247Z,94233
2019-04-05T12:29:29.791Z,94231
2019-04-05T12:30:39.388Z,94224
2019-04-05T12:31:48.936Z,94228
2019-04-05T12:32:58.514Z,94220
2019-04-05T12:34:09.067Z,94226
2019-04-05T12:35:21.193Z,94218
2019-04-05T12:36:28.274Z,94222
2019-04-05T12:37:49.378Z,94222
2019-04-05T12:38:48.321Z,94224
2019-04-05T12:39:57.863Z,94220
2019-04-05T12:41:10.621Z,94219
2019-04-05T12:42:17.968Z,94216
2019-04-05T12:43:27.535Z,94213
2019-04-05T12:44:37.028Z,94216
2019-04-05T12:45:47.590Z,94210
2019-04-05T12:46:57.181Z,94212
2019-04-05T12:48:06.744Z,94211
2019-04-05T12:49:17.287Z,94213
2019-04-05T12:50:26.881Z,94214
2019-04-05T12:51:36.436Z,94214
2019-04-05T12:52:46.992Z,94208
2019-04-05T12:53:57.589Z,94208
2019-04-05T12:55:07.167Z,94208
2019-04-05T12:56:16.738Z,94206
2019-04-05T12:57:27.762Z,94200
2019-04-05T12:58:36.849Z,94204
2019-04-05T12:59:46.448Z,94205
2019-04-05T13:00:57.075Z,94204
2019-04-05T13:02:06.523Z,94203
2019-04-05T13:03:18.808Z,94204
2019-04-05T13:04:26.647Z,94205
2019-04-05T13:05:36.209Z,94201
2019-04-05T13:06:45.759Z,94206
2019-04-05T13:07:56.327Z,94200
2019-04-05T13:09:06.310Z,94197
2019-04-05T13:10:15.436Z,94197
2019-04-05T13:11:26.784Z,94198
2019-04-05T13:12:35.574Z,94197
2019-04-05T13:13:45.108Z,94202
2019-04-05T13:14:56.731Z,94203
2019-04-05T13:16:05.175Z,94195
2019-04-05T13:17:14.767Z,94197
2019-04-05T13:18:25.226Z,94199
2019-04-05T13:19:34.792Z,94198
2019-04-05T13:20:44.341Z,94191
2019-04-05T13:21:53.882Z,94196
2019-04-05T13:23:06.469Z,94191
2019-04-05T13:24:13.990Z,94190
2019-04-05T13:25:23.521Z,94190
2019-04-05T13:26:33.050Z,94187
2019-04-05T13:27:43.604Z,94186
2019-04-05T13:28:53.155Z,94193
2019-04-05T13:30:02.772Z,94186
2019-04-05T13:31:12.291Z,94184
2019-04-05T13:32:22.519Z,94186
2019-04-05T13:33:31.381Z,94189
2019-04-05T13:34:40.943Z,94196
2019-04-05T13:35:50.493Z,94191
2019-04-05T13:37:01.371Z,94194
2019-04-05T13:38:10.606Z,94200
2019-04-05T13:39:20.167Z,94189
2019-04-05T13:40:30.746Z,94191
2019-04-05T13:41:40.296Z,94195
2019-04-05T13:42:49.906Z,94190
2019-04-05T13:44:01.522Z,94201
2019-04-05T13:45:08.982Z,94202
2019-04-05T13:46:22.101Z,94204
2019-04-05T13:47:29.006Z,94191
2019-04-05T13:48:40.099Z,94181
2019-04-05T13:49:49.079Z,94178
2019-04-05T13:50:58.731Z,94173
2019-04-05T13:52:09.563Z,94174
2019-04-05T13:53:18.756Z,94173
2019-04-05T13:54:28.323Z,94171
2019-04-05T13:55:38.462Z,94164
2019-04-05T13:56:48.432Z,94170
2019-04-05T13:58:00.682Z,94167
2019-04-05T13:59:07.541Z,94175
2019-04-05T14:00:18.240Z,94174
2019-04-05T14:01:26.662Z,94173
2019-04-05T14:02:36.227Z,94167
2019-04-05T14:03:45.851Z,94174
2019-04-05T14:04:55.393Z,94165
2019-04-05T14:06:04.931Z,94168
2019-04-05T14:07:14.500Z,94168
2019-04-05T14:08:25.052Z,94166
2019-04-05T14:09:34.608Z,94165
2019-04-05T14:10:44.161Z,94162
2019-04-05T14:11:53.752Z,94163
2019-04-05T14:13:03.298Z,94163
2019-04-05T14:14:12.863Z,94165
2019-04-05T14:15:22.432Z,94166
2019-04-05T14:16:32.978Z,94168
2019-04-05T14:17:44.682Z,94166
2019-04-05T14:18:53.036Z,94164
2019-04-05T14:20:02.640Z,94165
2019-04-05T14:21:12.181Z,94165
2019-04-05T14:22:23.044Z,94168
2019-04-05T14:23:32.297Z,94167
2019-04-05T14:24:41.835Z,94171
2019-04-05T14:25:51.395Z,94165
2019-04-05T14:27:03.623Z,94169
2019-04-05T14:28:11.472Z,94167
2019-04-05T14:29:21.083Z,94166
2019-04-05T14:30:32.887Z,94172
2019-04-05T14:31:40.165Z,94172
2019-04-05T14:32:51.014Z,94166
2019-04-05T14:33:59.313Z,94166
2019-04-05T14:35:08.857Z,94166
2019-04-05T14:36:18.481Z,94166
2019-04-05T14:37:27.999Z,94167
2019-04-05T14:38:37.658Z,94163
2019-04-05T14:39:47.186Z,94160
2019-04-05T14:40:56.725Z,94159
2019-04-05T14:42:09.805Z,94158
2019-04-05T14:43:16.868Z,94158
2019-04-05T14:44:26.510Z,94159
2019-04-05T14:45:36.075Z,94161
2019-04-05T14:46:45.668Z,94157
2019-04-05T14:47:57.506Z,94148
2019-04-05T14:49:04.855Z,94148
2019-04-05T14:50:15.880Z,94151
2019-04-05T14:51:23.925Z,94150
2019-04-05T14:52:33.478Z,94150
2019-04-05T14:53:43.000Z,94151
2019-04-05T14:54:52.639Z,94153
2019-04-05T14:56:03.174Z,94153
2019-04-05T14:57:12.766Z,94151
2019-04-05T14:58:22.361Z,94151